Time;durP1;ratioP1;P1;durP2;ratioP2;P2;SDS_P1;SDS_P2;PMS_P1;PMS_P2;Temp;Humidity;BMP_temperature;BMP_pressure;BME280_temperature;BME280_humidity;BME280_pressure;Samples;Min_cycle;Max_cycle;Signal;HPM_P1;HPM_P2
2020/12/24 00:01:21;;;;;;;7.13;6.53;;;11.50;99.90;;;;;;4935152;29;20236;-46
2020/12/24 00:03:48;;;;;;;6.55;5.95;;;11.50;99.90;;;;;;4935866;29;20240;-46
2020/12/24 00:06:15;;;;;;;7.07;6.32;;;11.50;99.90;;;;;;4935606;29;20690;-44
2020/12/24 00:08:42;;;;;;;4.18;3.80;;;11.60;99.90;;;;;;4935625;29;20251;-48
2020/12/24 00:11:09;;;;;;;4.50;4.10;;;11.50;99.90;;;;;;4935606;29;20247;-45
2020/12/24 00:13:37;;;;;;;3.70;3.40;;;11.50;99.90;;;;;;4935416;29;20303;-45
2020/12/24 00:16:05;;;;;;;3.85;3.45;;;11.40;99.90;;;;;;4935766;29;20223;-48
2020/12/24 00:18:32;;;;;;;5.25;4.60;;;11.40;99.90;;;;;;4935542;29;20228;-45
2020/12/24 00:20:59;;;;;;;3.58;3.28;;;11.30;99.90;;;;;;4935428;29;20662;-44
2020/12/24 00:23:26;;;;;;;3.95;3.58;;;11.30;99.90;;;;;;4935492;29;20667;-44
2020/12/24 00:25:53;;;;;;;4.03;2.90;;;11.30;99.90;;;;;;4935340;29;20801;-44
2020/12/24 00:28:20;;;;;;;2.30;2.10;;;11.30;99.90;;;;;;4935384;29;20328;-45
2020/12/24 00:30:47;;;;;;;2.97;2.15;;;11.20;99.90;;;;;;4935282;29;20576;-46
2020/12/24 00:33:15;;;;;;;2.15;1.95;;;11.10;99.90;;;;;;4935286;29;20265;-44
2020/12/24 00:35:42;;;;;;;1.80;1.70;;;11.10;99.90;;;;;;4935137;29;20222;-45
2020/12/24 00:38:09;;;;;;;17.83;11.93;;;11.10;99.90;;;;;;4934963;29;20253;-45
2020/12/24 00:40:37;;;;;;;5.15;3.58;;;11.10;99.90;;;;;;4935211;29;20243;-45
2020/12/24 00:43:04;;;;;;;2.63;2.13;;;11.10;99.90;;;;;;4934911;29;20302;-47
2020/12/24 00:45:31;;;;;;;3.45;2.40;;;11.10;99.90;;;;;;4935099;29;20226;-44
2020/12/24 00:47:58;;;;;;;2.35;2.08;;;11.10;99.90;;;;;;4934858;29;20216;-44
2020/12/24 00:50:26;;;;;;;2.75;2.10;;;11.00;99.90;;;;;;4934832;29;20207;-45
2020/12/24 00:52:53;;;;;;;2.20;2.00;;;11.00;99.90;;;;;;4935200;29;20215;-45
2020/12/24 00:55:20;;;;;;;2.35;1.90;;;11.00;99.90;;;;;;4934803;29;20208;-46
2020/12/24 00:57:47;;;;;;;1.98;1.67;;;11.00;99.90;;;;;;4935013;29;20243;-45
2020/12/24 01:00:14;;;;;;;1.88;1.70;;;11.00;99.90;;;;;;4934662;29;20327;-46
2020/12/24 01:02:41;;;;;;;2.45;1.58;;;11.00;99.90;;;;;;4934654;29;20290;-44
2020/12/24 01:05:08;;;;;;;1.40;1.15;;;10.90;99.90;;;;;;4934666;29;20423;-45
2020/12/24 01:07:36;;;;;;;1.70;1.55;;;10.90;99.90;;;;;;4934742;29;20686;-46
2020/12/24 01:10:06;;;;;;;1.58;1.48;;;10.90;99.90;;;;;;4934976;29;20547;-46
2020/12/24 01:12:34;;;;;;;1.77;1.67;;;10.80;99.90;;;;;;4934602;29;20216;-45
2020/12/24 01:15:01;;;;;;;1.52;1.42;;;10.70;99.90;;;;;;4934634;29;20303;-45
2020/12/24 01:17:28;;;;;;;3.75;1.70;;;10.70;99.90;;;;;;4934663;29;20683;-46
2020/12/24 01:19:55;;;;;;;3.15;1.27;;;10.70;99.90;;;;;;4934549;29;20794;-46
2020/12/24 01:22:22;;;;;;;4.18;1.85;;;10.60;99.90;;;;;;4934932;29;20306;-45
2020/12/24 01:24:50;;;;;;;2.55;1.17;;;10.60;99.90;;;;;;4934763;29;20220;-45
2020/12/24 01:27:17;;;;;;;2.78;1.77;;;10.60;99.90;;;;;;4934580;29;20382;-46
2020/12/24 01:29:44;;;;;;;3.80;1.40;;;10.60;99.90;;;;;;4934510;29;20294;-48
2020/12/24 01:32:11;;;;;;;1.20;1.10;;;10.60;99.90;;;;;;4934591;29;20307;-46
2020/12/24 01:34:38;;;;;;;1.60;1.30;;;10.60;99.90;;;;;;4935005;29;20298;-46
2020/12/24 01:37:05;;;;;;;2.38;1.38;;;10.60;99.90;;;;;;4934695;29;20216;-44
2020/12/24 01:39:32;;;;;;;4.55;1.60;;;10.60;99.90;;;;;;4934530;29;20267;-46
2020/12/24 01:42:00;;;;;;;3.72;2.38;;;10.50;99.90;;;;;;4934444;29;20238;-46
2020/12/24 01:44:27;;;;;;;2.22;1.20;;;10.50;99.90;;;;;;4934528;29;20242;-48
2020/12/24 01:46:54;;;;;;;1.50;0.80;;;10.50;99.90;;;;;;4934145;29;20212;-44
2020/12/24 01:49:21;;;;;;;3.40;1.48;;;10.50;99.90;;;;;;4934491;29;20215;-46
2020/12/24 01:51:52;;;;;;;1.00;0.90;;;10.50;99.90;;;;;;4934454;29;20223;-47
2020/12/24 01:54:21;;;;;;;4.30;2.53;;;10.50;99.90;;;;;;4934220;29;20572;-44
2020/12/24 01:56:48;;;;;;;2.00;1.27;;;10.50;99.90;;;;;;4934478;29;20302;-45
2020/12/24 01:59:17;;;;;;;0.80;0.80;;;10.50;99.90;;;;;;4934266;29;20318;-45
2020/12/24 02:01:45;;;;;;;1.23;1.05;;;10.50;99.90;;;;;;4934530;29;20271;-45
2020/12/24 02:04:12;;;;;;;1.58;1.30;;;10.50;99.90;;;;;;4926659;29;20319;-45
2020/12/24 02:06:40;;;;;;;1.02;0.80;;;10.50;99.90;;;;;;4934288;29;20638;-47
2020/12/24 02:09:07;;;;;;;1.10;0.77;;;10.40;99.90;;;;;;4934256;29;20271;-45
2020/12/24 02:11:35;;;;;;;1.77;0.80;;;10.40;99.90;;;;;;4934315;29;20250;-45
2020/12/24 02:14:02;;;;;;;14.52;7.28;;;10.40;99.90;;;;;;4934075;29;20739;-47
2020/12/24 02:16:33;;;;;;;1.20;1.00;;;10.40;99.90;;;;;;4934138;29;20597;-47
2020/12/24 02:19:00;;;;;;;0.68;0.68;;;10.30;99.90;;;;;;4934052;29;20236;-47
2020/12/24 02:21:28;;;;;;;2.67;0.90;;;10.30;99.90;;;;;;4934101;29;20213;-45
2020/12/24 02:23:55;;;;;;;1.05;0.90;;;10.30;99.90;;;;;;4935864;29;20259;-46
2020/12/24 02:26:22;;;;;;;3.17;2.28;;;10.40;99.90;;;;;;4937441;29;20240;-45
2020/12/24 02:28:49;;;;;;;2.35;1.35;;;10.40;99.90;;;;;;4937623;29;20211;-52
2020/12/24 02:31:16;;;;;;;1.08;0.82;;;10.40;99.90;;;;;;4937630;29;20244;-52
2020/12/24 02:33:43;;;;;;;1.50;0.90;;;10.40;99.90;;;;;;4937595;29;20243;-48
2020/12/24 02:36:10;;;;;;;2.03;1.23;;;10.40;99.90;;;;;;4937405;29;20255;-52
2020/12/24 02:38:38;;;;;;;1.63;1.38;;;10.50;99.90;;;;;;4937382;29;20323;-51
2020/12/24 02:41:05;;;;;;;1.40;1.08;;;10.50;99.90;;;;;;4937202;29;20298;-51
2020/12/24 02:43:32;;;;;;;1.48;0.90;;;10.50;99.90;;;;;;4937276;29;20238;-50
2020/12/24 02:45:59;;;;;;;1.13;0.95;;;10.50;99.90;;;;;;4937338;29;20235;-49
2020/12/24 02:48:26;;;;;;;1.45;0.95;;;10.50;99.90;;;;;;4937210;29;20228;-53
2020/12/24 02:50:54;;;;;;;6.32;4.75;;;10.50;99.90;;;;;;4937217;29;20294;-49
2020/12/24 02:53:21;;;;;;;5.22;2.92;;;10.50;99.90;;;;;;4937170;29;20594;-50
2020/12/24 02:55:49;;;;;;;1.90;0.90;;;10.50;99.90;;;;;;4937276;29;20266;-48
2020/12/24 02:58:16;;;;;;;1.00;0.90;;;10.60;99.90;;;;;;4937144;29;20250;-52
2020/12/24 03:00:43;;;;;;;1.52;1.05;;;10.60;99.90;;;;;;4937039;29;20247;-48
2020/12/24 03:03:10;;;;;;;1.55;0.90;;;10.50;99.90;;;;;;4937119;29;20302;-45
2020/12/24 03:05:37;;;;;;;0.70;0.68;;;10.50;99.90;;;;;;4936872;29;20557;-49
2020/12/24 03:08:04;;;;;;;0.82;0.82;;;10.50;99.90;;;;;;4936801;29;20303;-49
2020/12/24 03:10:31;;;;;;;1.10;0.70;;;10.50;99.90;;;;;;4936853;29;20212;-50
2020/12/24 03:12:59;;;;;;;1.70;1.25;;;10.50;99.90;;;;;;4936792;29;20334;-49
2020/12/24 03:15:26;;;;;;;1.45;1.08;;;10.50;99.90;;;;;;4936916;29;20565;-47
2020/12/24 03:17:53;;;;;;;1.42;1.00;;;10.50;99.90;;;;;;4936670;29;20212;-50
2020/12/24 03:20:20;;;;;;;1.52;0.93;;;10.40;99.90;;;;;;4936538;29;20393;-48
2020/12/24 03:22:47;;;;;;;0.95;0.80;;;10.40;99.90;;;;;;4936576;29;20216;-48
2020/12/24 03:25:14;;;;;;;1.08;0.65;;;10.40;99.90;;;;;;4936759;29;20212;-50
2020/12/24 03:27:41;;;;;;;2.85;1.20;;;10.30;99.90;;;;;;4936281;29;20303;-45
2020/12/24 03:30:10;;;;;;;1.42;0.80;;;10.30;99.90;;;;;;4936546;29;20204;-46
2020/12/24 03:32:37;;;;;;;1.25;0.70;;;10.30;99.90;;;;;;4936507;29;20219;-46
2020/12/24 03:35:05;;;;;;;1.10;0.80;;;10.30;99.90;;;;;;4936624;29;20578;-45
2020/12/24 03:37:33;;;;;;;2.35;0.85;;;10.20;99.90;;;;;;4936144;29;20247;-45
2020/12/24 03:40:00;;;;;;;0.60;0.60;;;10.20;99.90;;;;;;4936097;29;20255;-43
2020/12/24 03:42:27;;;;;;;0.63;0.63;;;10.20;99.90;;;;;;4936073;29;20220;-45
2020/12/24 03:44:54;;;;;;;0.60;0.60;;;10.10;99.90;;;;;;4936160;29;20261;-46
2020/12/24 03:47:21;;;;;;;2.22;1.02;;;10.10;99.90;;;;;;4936037;29;20302;-44
2020/12/24 03:49:48;;;;;;;1.85;1.00;;;10.10;99.90;;;;;;4935935;29;20569;-44
2020/12/24 03:52:15;;;;;;;1.55;0.70;;;10.10;99.90;;;;;;4935839;29;20689;-49
2020/12/24 03:54:42;;;;;;;0.55;0.50;;;10.10;99.90;;;;;;4935885;29;20302;-45
2020/12/24 03:57:09;;;;;;;0.57;0.50;;;10.00;99.90;;;;;;4935817;29;20738;-45
2020/12/24 03:59:36;;;;;;;0.90;0.60;;;9.80;99.90;;;;;;4935750;29;20270;-46
2020/12/24 04:02:03;;;;;;;1.13;0.80;;;9.70;99.90;;;;;;4935722;29;20310;-49
2020/12/24 04:04:32;;;;;;;0.60;0.60;;;9.50;99.90;;;;;;4935791;29;20223;-48
2020/12/24 04:06:59;;;;;;;0.95;0.73;;;9.40;99.90;;;;;;4935803;29;20565;-45
2020/12/24 04:09:26;;;;;;;0.68;0.60;;;9.40;99.90;;;;;;4935812;29;20637;-45
2020/12/24 04:11:53;;;;;;;1.88;0.90;;;9.30;99.90;;;;;;4935572;29;20216;-45
2020/12/24 04:14:20;;;;;;;2.40;1.00;;;9.20;99.90;;;;;;4935430;29;20697;-49
2020/12/24 04:16:47;;;;;;;0.70;0.70;;;9.20;99.90;;;;;;4935533;29;20238;-51
2020/12/24 04:19:14;;;;;;;1.02;0.70;;;9.10;99.90;;;;;;4935727;29;20573;-46
2020/12/24 04:21:42;;;;;;;1.52;0.68;;;9.10;99.90;;;;;;4935767;29;20207;-46
2020/12/24 04:24:09;;;;;;;1.60;0.75;;;9.10;99.90;;;;;;4935630;29;20647;-46
2020/12/24 04:26:36;;;;;;;0.70;0.70;;;9.20;99.90;;;;;;4935473;29;20667;-47
2020/12/24 04:29:03;;;;;;;0.60;0.60;;;9.20;99.90;;;;;;4935372;29;20216;-47
2020/12/24 04:31:30;;;;;;;1.08;0.60;;;9.10;99.90;;;;;;4935119;29;20251;-48
2020/12/24 04:33:58;;;;;;;1.30;0.82;;;9.10;99.90;;;;;;4935270;29;20303;-53
2020/12/24 04:36:25;;;;;;;0.77;0.50;;;9.00;99.90;;;;;;4935267;29;20306;-52
2020/12/24 04:38:53;;;;;;;4.15;0.65;;;9.00;99.90;;;;;;4935139;29;20318;-47
2020/12/24 04:41:20;;;;;;;1.23;0.68;;;8.90;99.90;;;;;;4935326;29;20243;-49
2020/12/24 04:43:48;;;;;;;1.08;0.80;;;8.90;99.90;;;;;;4935064;29;20212;-48
2020/12/24 04:46:17;;;;;;;0.93;0.40;;;8.90;99.90;;;;;;4934659;29;20208;-48
2020/12/24 04:48:45;;;;;;;1.25;0.57;;;8.80;99.90;;;;;;4934957;29;20299;-46
2020/12/24 04:51:19;;;;;;;0.40;0.40;;;8.70;99.90;;;;;;4934948;29;20226;-47
2020/12/24 04:53:47;;;;;;;0.85;0.45;;;8.70;99.90;;;;;;4934851;29;20299;-46
2020/12/24 04:56:14;;;;;;;1.48;0.40;;;8.70;99.90;;;;;;4935011;29;20212;-47
2020/12/24 04:58:42;;;;;;;0.70;0.70;;;8.60;99.90;;;;;;4934719;29;20216;-46
2020/12/24 05:01:17;;;;;;;0.93;0.30;;;8.50;99.90;;;;;;4934721;29;20312;-44
2020/12/24 05:03:44;;;;;;;1.10;0.60;;;8.40;99.90;;;;;;4934876;29;20323;-42
2020/12/24 05:06:15;;;;;;;0.77;0.40;;;8.40;99.90;;;;;;4926986;29;20298;-47
2020/12/24 05:08:53;;;;;;;0.80;0.40;;;8.40;99.90;;;;;;4934780;29;20659;-47
2020/12/24 05:11:28;;;;;;;1.38;0.50;;;8.30;99.90;;;;;;4934956;29;20215;-47
2020/12/24 05:13:55;;;;;;;0.57;0.45;;;8.30;99.90;;;;;;4934513;29;20322;-46
2020/12/24 05:16:26;;;;;;;0.70;0.50;;;8.30;99.90;;;;;;4934350;29;20628;-51
2020/12/24 05:18:53;;;;;;;2.35;0.60;;;8.30;99.90;;;;;;4934505;29;20374;-46
2020/12/24 05:21:37;;;;;;;0.90;0.70;;;8.30;99.90;;;;;;4934867;29;20204;-45
2020/12/24 05:24:21;;;;;;;0.77;0.50;;;8.30;99.90;;;;;;4934601;29;20431;-45
2020/12/24 05:26:50;;;;;;;0.50;0.50;;;8.20;99.90;;;;;;4934574;29;20579;-46
2020/12/24 05:29:17;;;;;;;1.25;0.60;;;8.20;99.90;;;;;;4934247;29;20431;-44
2020/12/24 05:31:44;;;;;;;2.83;0.70;;;8.20;99.90;;;;;;4934509;29;20586;-45
2020/12/24 05:34:19;;;;;;;0.80;0.70;;;8.20;99.90;;;;;;4934521;29;20212;-45
2020/12/24 05:36:47;;;;;;;0.85;0.60;;;8.20;99.90;;;;;;4934459;29;20663;-45
2020/12/24 05:39:14;;;;;;;2.53;0.77;;;8.20;99.90;;;;;;4934255;29;20232;-45
2020/12/24 05:41:41;;;;;;;2.47;0.98;;;8.20;99.90;;;;;;4934567;29;20691;-46
2020/12/24 05:44:10;;;;;;;0.57;0.50;;;8.20;99.90;;;;;;4934253;29;20303;-51
2020/12/24 05:46:42;;;;;;;4.00;0.80;;;8.30;99.90;;;;;;4934513;29;20301;-45
2020/12/24 05:49:19;;;;;;;0.82;0.57;;;8.20;99.90;;;;;;4934549;29;20593;-43
2020/12/24 05:51:58;;;;;;;1.45;0.63;;;8.20;99.90;;;;;;4934401;29;20300;-43
2020/12/24 05:54:26;;;;;;;3.45;0.73;;;8.20;99.90;;;;;;4934119;29;20216;-44
2020/12/24 05:56:54;;;;;;;0.57;0.50;;;8.30;99.90;;;;;;4934124;29;20583;-44
2020/12/24 05:59:24;;;;;;;0.65;0.65;;;8.30;99.90;;;;;;4936669;29;20278;-46
2020/12/24 06:02:05;;;;;;;0.60;0.50;;;8.20;99.90;;;;;;4937929;29;20211;-44
2020/12/24 06:04:47;;;;;;;0.50;0.50;;;8.20;99.90;;;;;;4937740;29;20215;-45
2020/12/24 06:07:30;;;;;;;0.50;0.50;;;8.10;99.90;;;;;;4937860;29;20212;-44
2020/12/24 06:10:08;;;;;;;0.70;0.47;;;8.00;99.90;;;;;;4937870;29;20624;-44
2020/12/24 06:12:51;;;;;;;3.28;0.73;;;8.00;99.90;;;;;;4937983;29;20267;-44
2020/12/24 06:15:19;;;;;;;0.88;0.68;;;7.90;99.90;;;;;;4937468;29;20575;-44
2020/12/24 06:17:49;;;;;;;3.00;0.73;;;7.90;99.90;;;;;;4937339;29;20220;-44
2020/12/24 06:20:19;;;;;;;1.58;0.70;;;7.80;99.90;;;;;;4937488;29;20232;-45
2020/12/24 06:22:47;;;;;;;2.20;0.73;;;7.80;99.90;;;;;;4937463;29;20746;-46
2020/12/24 06:25:15;;;;;;;0.40;0.40;;;7.80;99.90;;;;;;4929747;29;20346;-46
2020/12/24 06:27:45;;;;;;;1.55;0.40;;;7.70;99.90;;;;;;4937498;29;20747;-44
2020/12/24 06:30:15;;;;;;;0.63;0.57;;;7.70;99.90;;;;;;4937009;29;20244;-45
2020/12/24 06:32:48;;;;;;;1.70;0.82;;;7.70;99.90;;;;;;4937284;29;20211;-45
2020/12/24 06:35:34;;;;;;;2.33;0.40;;;7.70;99.90;;;;;;4937312;29;20631;-44
2020/12/24 06:38:01;;;;;;;3.92;0.43;;;7.70;99.90;;;;;;4936955;29;20219;-44
2020/12/24 06:40:32;;;;;;;2.13;0.63;;;7.60;99.90;;;;;;4936676;29;20355;-44
2020/12/24 06:43:00;;;;;;;0.80;0.65;;;7.60;99.90;;;;;;4937045;29;20252;-44
2020/12/24 06:45:38;;;;;;;2.92;0.80;;;7.50;99.90;;;;;;4937275;29;20645;-45
2020/12/24 06:48:27;;;;;;;3.17;0.65;;;7.50;99.90;;;;;;4936869;29;20247;-44
2020/12/24 06:51:00;;;;;;;1.55;0.80;;;7.50;99.90;;;;;;4932335;29;20663;-46
2020/12/24 06:53:30;;;;;;;0.70;0.70;;;7.40;99.90;;;;;;4937110;29;20212;-47
2020/12/24 06:56:20;;;;;;;2.88;2.30;;;7.40;99.90;;;;;;4936647;29;20291;-51
2020/12/24 06:58:49;;;;;;;3.35;1.42;;;7.40;99.90;;;;;;4936777;29;20216;-47
2020/12/24 07:01:17;;;;;;;1.30;0.90;;;7.40;99.90;;;;;;4936192;29;20330;-46
2020/12/24 07:03:45;;;;;;;0.90;0.80;;;7.40;99.90;;;;;;4936397;29;20672;-45
2020/12/24 07:06:12;;;;;;;1.90;0.82;;;7.40;99.90;;;;;;4936567;29;20220;-49
2020/12/24 07:08:48;;;;;;;0.77;0.77;;;7.40;99.90;;;;;;4936285;29;20236;-45
2020/12/24 07:11:46;;;;;;;3.10;1.20;;;7.30;99.90;;;;;;4936288;29;20208;-47
2020/12/24 07:14:26;;;;;;;0.80;0.80;;;7.40;99.90;;;;;;4877712;29;20711;-52
2020/12/24 07:16:54;;;;;;;2.80;0.95;;;7.40;99.90;;;;;;4928922;29;20208;-50
2020/12/24 07:19:23;;;;;;;1.70;0.88;;;7.40;99.90;;;;;;4936549;29;20342;-52
2020/12/24 07:21:51;;;;;;;1.00;0.80;;;7.40;99.90;;;;;;4936499;29;20759;-52
2020/12/24 07:24:26;;;;;;;4.88;1.75;;;7.40;99.90;;;;;;4936351;29;20212;-47
2020/12/24 07:26:56;;;;;;;2.60;1.30;;;7.40;99.90;;;;;;4936522;29;20279;-43
2020/12/24 07:29:24;;;;;;;4.60;1.35;;;7.40;99.90;;;;;;4936416;29;20207;-44
2020/12/24 07:31:52;;;;;;;1.48;1.15;;;7.40;99.90;;;;;;4936318;29;20340;-44
2020/12/24 07:34:25;;;;;;;2.72;1.67;;;7.40;99.90;;;;;;4936374;29;20218;-45
2020/12/24 07:36:52;;;;;;;5.95;3.97;;;7.40;99.90;;;;;;4936262;29;20294;-47
2020/12/24 07:39:19;;;;;;;2.45;1.63;;;7.40;99.90;;;;;;4936103;29;20255;-47
2020/12/24 07:41:46;;;;;;;1.42;1.00;;;7.40;99.90;;;;;;4936492;29;20656;-46
2020/12/24 07:44:16;;;;;;;1.63;0.90;;;7.30;99.90;;;;;;4936159;29;20316;-44
2020/12/24 07:46:43;;;;;;;2.42;0.90;;;7.30;99.90;;;;;;4936165;29;20216;-45
2020/12/24 07:49:10;;;;;;;4.88;0.90;;;7.20;99.90;;;;;;4935952;29;20240;-44
2020/12/24 07:51:38;;;;;;;1.70;1.20;;;7.30;99.90;;;;;;4935931;29;20262;-48
2020/12/24 07:54:08;;;;;;;2.35;1.25;;;7.20;99.90;;;;;;4936046;29;20212;-43
2020/12/24 07:56:36;;;;;;;1.77;1.17;;;7.20;99.90;;;;;;4936142;29;20220;-46
2020/12/24 07:59:04;;;;;;;3.03;0.90;;;7.30;99.90;;;;;;4935873;29;20218;-44
2020/12/24 08:01:32;;;;;;;0.90;0.80;;;7.30;99.90;;;;;;4935744;29;20212;-45
2020/12/24 08:04:00;;;;;;;2.50;0.98;;;7.30;99.90;;;;;;4935524;29;20301;-46
2020/12/24 08:06:29;;;;;;;5.05;1.42;;;7.30;99.90;;;;;;4935792;29;20386;-45
2020/12/24 08:09:08;;;;;;;2.63;1.17;;;7.30;99.90;;;;;;4935310;29;20306;-47
2020/12/24 08:11:36;;;;;;;1.40;0.98;;;7.30;99.90;;;;;;4935678;29;20315;-46
2020/12/24 08:14:03;;;;;;;2.28;1.00;;;7.30;99.90;;;;;;4935588;29;20330;-45
2020/12/24 08:16:33;;;;;;;2.75;1.35;;;7.30;99.90;;;;;;4935474;29;20280;-45
2020/12/24 08:19:11;;;;;;;5.25;1.50;;;7.40;99.90;;;;;;4935926;29;20212;-45
2020/12/24 08:21:50;;;;;;;3.80;1.20;;;7.30;99.90;;;;;;4934877;29;20208;-48
2020/12/24 08:24:19;;;;;;;2.45;1.27;;;7.40;99.90;;;;;;4935185;29;20271;-46
2020/12/24 08:26:47;;;;;;;2.55;1.10;;;7.40;99.90;;;;;;4935176;29;20296;-48
2020/12/24 08:29:15;;;;;;;2.88;1.25;;;7.40;99.90;;;;;;4935390;29;20243;-43
2020/12/24 08:31:43;;;;;;;1.65;1.13;;;7.40;99.90;;;;;;4935742;29;20306;-44
2020/12/24 08:34:10;;;;;;;3.35;1.65;;;7.30;99.90;;;;;;4935336;29;20233;-44
2020/12/24 08:36:43;;;;;;;2.63;1.30;;;7.30;99.90;;;;;;4935553;29;20218;-49
2020/12/24 08:39:12;;;;;;;1.50;0.90;;;7.30;99.90;;;;;;4935594;29;20291;-44
2020/12/24 08:41:43;;;;;;;5.53;3.72;;;7.40;99.90;;;;;;4935792;29;20676;-43
2020/12/24 08:44:11;;;;;;;3.47;2.42;;;7.40;99.90;;;;;;4935792;29;20208;-48
2020/12/24 08:46:38;;;;;;;3.92;1.50;;;7.40;99.90;;;;;;4935658;29;20212;-45
2020/12/24 08:49:20;;;;;;;2.58;1.30;;;7.40;99.90;;;;;;4935435;29;20219;-45
2020/12/24 08:51:47;;;;;;;3.80;1.40;;;7.40;99.90;;;;;;4935074;29;20299;-48
2020/12/24 08:54:14;;;;;;;3.03;1.42;;;7.50;99.90;;;;;;4934955;29;20211;-45
2020/12/24 08:56:44;;;;;;;3.45;1.35;;;7.50;99.90;;;;;;4935009;29;20298;-45
2020/12/24 08:59:13;;;;;;;3.05;1.52;;;7.50;99.90;;;;;;4934980;29;20595;-48
2020/12/24 09:01:44;;;;;;;4.80;1.20;;;7.50;99.90;;;;;;4934075;29;20694;-45
2020/12/24 09:04:14;;;;;;;2.97;2.22;;;7.50;99.90;;;;;;4934528;29;20299;-47
2020/12/24 09:06:41;;;;;;;2.05;0.80;;;7.60;99.90;;;;;;4935032;29;20220;-46
2020/12/24 09:09:08;;;;;;;1.95;1.20;;;7.70;99.90;;;;;;4934775;29;20614;-48
2020/12/24 09:11:36;;;;;;;1.55;0.85;;;7.80;99.90;;;;;;4934450;29;20235;-48
2020/12/24 09:14:05;;;;;;;4.35;1.23;;;7.80;99.90;;;;;;4934625;29;20270;-46
2020/12/24 09:16:34;;;;;;;2.47;1.88;;;7.90;99.90;;;;;;4934526;29;20742;-46
2020/12/24 09:19:04;;;;;;;2.13;1.60;;;7.90;99.90;;;;;;4934266;29;20243;-48
2020/12/24 09:21:31;;;;;;;2.50;1.75;;;7.90;99.90;;;;;;4934885;29;20232;-47
2020/12/24 09:24:10;;;;;;;1.73;1.20;;;7.90;99.90;;;;;;4934541;29;20307;-45
2020/12/24 09:26:42;;;;;;;2.42;1.38;;;7.90;99.90;;;;;;4934533;29;20235;-47
2020/12/24 09:29:10;;;;;;;2.10;0.90;;;8.00;99.90;;;;;;4933863;29;20208;-47
2020/12/24 09:31:37;;;;;;;8.07;3.42;;;8.00;99.90;;;;;;4934471;29;20683;-45
2020/12/24 09:34:04;;;;;;;1.20;0.75;;;8.00;99.90;;;;;;4938166;29;20259;-46
2020/12/24 09:36:32;;;;;;;4.47;1.83;;;8.10;99.90;;;;;;4938383;29;20232;-44
2020/12/24 09:38:59;;;;;;;3.72;1.25;;;8.00;99.90;;;;;;4938441;29;20212;-48
2020/12/24 09:41:26;;;;;;;2.40;1.17;;;8.00;99.90;;;;;;4937818;29;20711;-44
2020/12/24 09:43:53;;;;;;;6.38;4.32;;;8.10;99.90;;;;;;4937683;29;20299;-48
2020/12/24 09:46:21;;;;;;;3.63;1.88;;;8.10;99.90;;;;;;4937798;29;20248;-47
2020/12/24 09:48:48;;;;;;;1.70;1.58;;;8.20;99.90;;;;;;4937961;29;20239;-46
2020/12/24 09:51:15;;;;;;;9.70;6.40;;;8.40;99.90;;;;;;4937908;29;20204;-46
2020/12/24 09:53:43;;;;;;;4.85;2.88;;;8.50;99.90;;;;;;4937964;29;20267;-47
2020/12/24 09:56:10;;;;;;;2.45;1.58;;;8.70;99.90;;;;;;4937984;29;20223;-45
2020/12/24 09:58:37;;;;;;;2.13;1.45;;;8.90;99.90;;;;;;4937758;29;20255;-46
2020/12/24 10:01:04;;;;;;;1.40;1.02;;;9.00;99.90;;;;;;4937815;29;20264;-47
2020/12/24 10:03:32;;;;;;;1.50;1.02;;;9.10;99.90;;;;;;4938009;29;20212;-46
2020/12/24 10:05:59;;;;;;;1.63;1.10;;;9.10;99.90;;;;;;4937443;29;20212;-44
2020/12/24 10:08:27;;;;;;;1.58;0.95;;;9.20;99.90;;;;;;4937554;29;20299;-45
2020/12/24 10:10:54;;;;;;;3.45;1.05;;;9.30;99.90;;;;;;4937220;29;20300;-47
2020/12/24 10:13:21;;;;;;;1.70;1.27;;;9.40;99.90;;;;;;4937688;29;20335;-48
2020/12/24 10:15:48;;;;;;;4.25;2.55;;;9.40;99.90;;;;;;4937565;29;20291;-44
2020/12/24 10:18:15;;;;;;;1.67;0.90;;;9.50;99.90;;;;;;4937562;29;20303;-49
2020/12/24 10:20:43;;;;;;;3.40;1.05;;;9.60;99.90;;;;;;4936901;29;20323;-47
2020/12/24 10:23:10;;;;;;;1.85;1.30;;;9.70;99.90;;;;;;4937420;29;20266;-45
2020/12/24 10:25:39;;;;;;;10.10;1.00;;;9.70;99.90;;;;;;4937214;29;20218;-48
2020/12/24 10:28:06;;;;;;;2.38;1.73;;;9.70;99.90;;;;;;4937211;29;20219;-45
2020/12/24 10:30:33;;;;;;;1.45;0.73;;;9.80;99.90;;;;;;4937245;29;20312;-46
2020/12/24 10:33:00;;;;;;;2.72;1.17;;;9.90;99.90;;;;;;4937179;29;20299;-46
2020/12/24 10:35:28;;;;;;;1.40;0.93;;;9.90;99.90;;;;;;4937409;29;20208;-45
2020/12/24 10:37:56;;;;;;;2.28;1.30;;;9.90;99.90;;;;;;4937157;29;20239;-47
2020/12/24 10:40:23;;;;;;;1.13;1.02;;;9.90;99.90;;;;;;4937002;29;20236;-43
2020/12/24 10:42:50;;;;;;;1.83;1.35;;;10.00;99.90;;;;;;4937064;29;20295;-46
2020/12/24 10:45:17;;;;;;;1.70;1.10;;;10.00;99.90;;;;;;4936365;29;20243;-47
2020/12/24 10:47:44;;;;;;;1.90;1.02;;;10.10;99.90;;;;;;4936831;29;20307;-47
2020/12/24 10:50:11;;;;;;;3.40;1.92;;;10.10;99.90;;;;;;4929080;29;20303;-46
2020/12/24 10:52:38;;;;;;;17.10;10.60;;;10.10;99.90;;;;;;4937105;29;20212;-44
2020/12/24 10:55:10;;;;;;;3.25;1.98;;;10.10;99.90;;;;;;4937009;29;20669;-47
2020/12/24 10:57:37;;;;;;;3.35;1.52;;;10.20;99.90;;;;;;4937138;29;20212;-46
2020/12/24 11:00:05;;;;;;;1.55;1.25;;;10.20;99.90;;;;;;4936804;29;20282;-42
2020/12/24 11:02:32;;;;;;;3.15;1.80;;;10.10;99.90;;;;;;4936832;29;20753;-44
2020/12/24 11:04:59;;;;;;;1.65;0.82;;;10.00;99.90;;;;;;4936754;29;20215;-42
2020/12/24 11:07:31;;;;;;;3.75;1.85;;;10.00;99.90;;;;;;4936811;29;20223;-44
2020/12/24 11:09:58;;;;;;;3.17;2.30;;;10.00;99.90;;;;;;4936807;29;20247;-36
2020/12/24 11:12:26;;;;;;;1.70;1.10;;;10.00;99.90;;;;;;4936646;29;20248;-42
2020/12/24 11:14:53;;;;;;;3.33;1.15;;;10.00;99.90;;;;;;4936372;29;20243;-43
2020/12/24 11:17:20;;;;;;;1.75;1.27;;;10.00;99.90;;;;;;4936532;29;20255;-42
2020/12/24 11:19:47;;;;;;;3.22;1.92;;;10.00;99.90;;;;;;4936205;29;20307;-44
2020/12/24 11:22:15;;;;;;;2.22;1.00;;;10.00;99.90;;;;;;4936498;29;20247;-44
2020/12/24 11:24:42;;;;;;;2.20;1.10;;;10.10;99.90;;;;;;4936464;29;20298;-43
2020/12/24 11:27:09;;;;;;;1.13;0.82;;;10.00;99.90;;;;;;4936336;29;20302;-42
2020/12/24 11:29:37;;;;;;;3.00;1.00;;;10.00;99.90;;;;;;4936083;29;20746;-47
2020/12/24 11:32:04;;;;;;;1.27;0.80;;;10.00;99.90;;;;;;4936117;29;20263;-46
2020/12/24 11:34:31;;;;;;;3.60;2.50;;;10.00;99.90;;;;;;4936218;29;20308;-47
2020/12/24 11:36:59;;;;;;;5.00;1.33;;;10.00;99.90;;;;;;4936277;29;20243;-46
2020/12/24 11:39:26;;;;;;;5.63;2.42;;;10.10;99.90;;;;;;4935962;29;20649;-44
2020/12/24 11:41:56;;;;;;;2.20;1.10;;;10.10;99.90;;;;;;4936049;29;20228;-43
2020/12/24 11:44:23;;;;;;;1.15;0.80;;;10.10;99.90;;;;;;4935931;29;20218;-46
2020/12/24 11:46:51;;;;;;;1.10;1.00;;;10.00;99.90;;;;;;4935788;29;20671;-43
2020/12/24 11:49:18;;;;;;;1.20;1.02;;;10.00;99.90;;;;;;4935881;29;20268;-47
2020/12/24 11:51:45;;;;;;;3.65;1.27;;;9.90;99.90;;;;;;4935970;29;20208;-42
2020/12/24 11:54:12;;;;;;;2.78;1.80;;;9.90;99.90;;;;;;4935492;29;20654;-43
2020/12/24 11:56:39;;;;;;;0.70;0.63;;;9.90;99.90;;;;;;4935622;29;20264;-42
2020/12/24 11:59:06;;;;;;;2.67;2.35;;;9.90;99.90;;;;;;4935763;29;20212;-43
2020/12/24 12:01:33;;;;;;;6.97;3.88;;;9.90;99.90;;;;;;4935372;29;20323;-42
2020/12/24 12:04:01;;;;;;;4.18;1.42;;;9.90;99.90;;;;;;4935480;29;20344;-43
2020/12/24 12:06:28;;;;;;;6.78;3.08;;;9.90;99.90;;;;;;4935463;29;20271;-46
2020/12/24 12:08:55;;;;;;;1.90;1.13;;;9.90;99.90;;;;;;4935451;29;20630;-48
2020/12/24 12:11:22;;;;;;;2.60;1.40;;;9.90;99.90;;;;;;4935460;29;20306;-47
2020/12/24 12:13:50;;;;;;;4.30;2.30;;;9.90;99.90;;;;;;4935078;29;20335;-46
2020/12/24 12:16:22;;;;;;;3.72;2.70;;;9.90;99.90;;;;;;4935235;29;20690;-46
2020/12/24 12:18:49;;;;;;;4.70;2.50;;;9.90;99.90;;;;;;4935345;29;20299;-46
2020/12/24 12:21:18;;;;;;;1.65;0.80;;;9.90;99.90;;;;;;4935169;29;20318;-43
2020/12/24 12:23:45;;;;;;;1.92;1.00;;;9.80;99.90;;;;;;4935549;29;20311;-43
2020/12/24 12:26:15;;;;;;;2.75;1.42;;;9.80;99.90;;;;;;4935007;29;20514;-48
2020/12/24 12:28:43;;;;;;;4.90;1.30;;;9.80;99.90;;;;;;4935276;29;20279;-43
2020/12/24 12:31:16;;;;;;;3.13;1.70;;;9.90;99.90;;;;;;4935227;29;20239;-42
2020/12/24 12:33:43;;;;;;;2.28;1.33;;;9.90;99.90;;;;;;4935017;29;20231;-44
2020/12/24 12:36:10;;;;;;;3.55;1.60;;;9.80;99.90;;;;;;4935065;29;20808;-44
2020/12/24 12:38:38;;;;;;;3.67;3.08;;;9.80;99.90;;;;;;4935010;29;20291;-41
2020/12/24 12:41:05;;;;;;;3.88;2.28;;;9.80;99.90;;;;;;4934933;29;20227;-42
2020/12/24 12:43:32;;;;;;;4.72;0.80;;;9.80;99.90;;;;;;4934855;29;20754;-42
2020/12/24 12:45:59;;;;;;;1.48;0.80;;;9.80;99.90;;;;;;4935262;29;20268;-41
2020/12/24 12:48:26;;;;;;;2.42;1.40;;;9.70;99.90;;;;;;4935126;29;20310;-48
2020/12/24 12:50:53;;;;;;;2.45;1.50;;;9.70;99.90;;;;;;4934715;29;20235;-40
2020/12/24 12:53:20;;;;;;;2.95;1.45;;;9.70;99.90;;;;;;4934813;29;20302;-41
2020/12/24 12:55:48;;;;;;;2.23;1.00;;;9.70;99.90;;;;;;4934891;29;20236;-41
2020/12/24 12:58:15;;;;;;;1.20;1.00;;;9.70;99.90;;;;;;4934674;29;20216;-41
2020/12/24 13:00:42;;;;;;;1.60;0.88;;;9.60;99.90;;;;;;4934486;29;20259;-42